createdAt,value
2022-12-10T00:01:37.722Z,10.18
2022-12-10T00:04:05.493Z,10.93
2022-12-10T00:06:35.512Z,12.17
2022-12-10T00:09:05.146Z,13.32
2022-12-10T00:11:33.164Z,13.18
2022-12-10T00:14:01.082Z,12.82
2022-12-10T00:16:31.554Z,10.77
2022-12-10T00:18:59.314Z,10.83
2022-12-10T00:21:30.113Z,11.30
2022-12-10T00:23:58.468Z,10.52
2022-12-10T00:26:28.710Z,10.20
2022-12-10T00:28:59.673Z,9.25
2022-12-10T00:31:30.120Z,9.27
2022-12-10T00:33:59.507Z,9.85
2022-12-10T00:36:33.084Z,9.65
2022-12-10T00:39:01.270Z,7.82
2022-12-10T00:41:29.654Z,8.77
2022-12-10T00:43:57.248Z,13.30
2022-12-10T00:46:25.110Z,11.45
2022-12-10T00:48:52.795Z,10.60
2022-12-10T00:51:23.115Z,9.57
2022-12-10T00:53:52.218Z,8.27
2022-12-10T00:56:23.214Z,7.63
2022-12-10T00:58:51.297Z,8.48
2022-12-10T01:01:36.944Z,8.93
2022-12-10T01:04:11.077Z,7.87
2022-12-10T01:06:44.990Z,8.73
2022-12-10T01:09:15.901Z,7.67
2022-12-10T01:11:45.467Z,8.70
2022-12-10T01:14:18.411Z,8.48
2022-12-10T01:16:49.882Z,8.75
2022-12-10T01:19:17.946Z,13.52
2022-12-10T01:21:45.540Z,13.43
2022-12-10T01:24:13.008Z,13.55
2022-12-10T01:26:40.721Z,12.57
2022-12-10T01:29:08.214Z,11.27
2022-12-10T01:31:37.906Z,8.65
2022-12-10T01:34:08.978Z,10.67
2022-12-10T01:36:42.476Z,10.15
2022-12-10T01:39:15.107Z,8.80
2022-12-10T01:41:49.115Z,8.32
2022-12-10T01:44:18.027Z,5.87
2022-12-10T01:46:48.092Z,7.33
2022-12-10T01:49:34.005Z,7.97
2022-12-10T01:52:02.320Z,7.80
2022-12-10T01:54:34.192Z,6.57
2022-12-10T01:57:08.999Z,7.85
2022-12-10T01:59:37.995Z,6.77
2022-12-10T02:02:17.763Z,7.47
2022-12-10T02:05:06.494Z,5.87
2022-12-10T02:08:04.288Z,6.82
2022-12-10T02:10:47.018Z,7.82
2022-12-10T02:13:24.717Z,7.70
2022-12-10T02:15:57.274Z,7.75
2022-12-10T02:18:43.182Z,8.43
2022-12-10T02:21:18.259Z,9.15
2022-12-10T02:23:55.078Z,10.23
2022-12-10T02:26:57.042Z,8.83
2022-12-10T02:29:29.974Z,9.38
2022-12-10T02:32:07.649Z,9.05
2022-12-10T02:34:41.519Z,11.27
2022-12-10T02:37:16.403Z,10.70
2022-12-10T02:39:50.655Z,9.83
2022-12-10T02:42:20.274Z,9.45
2022-12-10T02:44:49.709Z,9.75
2022-12-10T02:47:20.117Z,9.93
2022-12-10T02:49:50.948Z,9.77
2022-12-10T02:52:20.801Z,8.87
2022-12-10T02:54:52.245Z,8.25
2022-12-10T02:57:40.371Z,6.87
2022-12-10T03:00:13.552Z,7.12
2022-12-10T03:03:01.096Z,6.37
2022-12-10T03:05:39.543Z,5.93
2022-12-10T03:08:12.910Z,6.90
2022-12-10T03:10:51.708Z,6.53
2022-12-10T03:13:22.960Z,6.87
2022-12-10T03:15:54.508Z,7.45
2022-12-10T03:18:26.078Z,7.23
2022-12-10T03:20:56.907Z,6.70
2022-12-10T03:23:24.736Z,6.62
2022-12-10T03:25:52.180Z,6.68
2022-12-10T03:28:23.166Z,6.90
2022-12-10T03:30:52.875Z,6.93
2022-12-10T03:33:20.741Z,6.80
2022-12-10T03:35:48.894Z,6.53
2022-12-10T03:38:17.147Z,6.95
2022-12-10T03:40:44.642Z,7.25
2022-12-10T03:43:14.636Z,7.00
2022-12-10T03:45:42.542Z,8.18
2022-12-10T03:48:10.019Z,7.07
2022-12-10T03:50:37.459Z,8.50
2022-12-10T03:53:05.225Z,8.88
2022-12-10T03:55:33.953Z,8.43
2022-12-10T03:58:01.411Z,9.05
2022-12-10T04:00:29.101Z,7.57
2022-12-10T04:02:56.858Z,7.90
2022-12-10T04:05:24.331Z,6.93
2022-12-10T04:07:51.894Z,6.53
2022-12-10T04:10:19.614Z,5.80
2022-12-10T04:13:07.013Z,5.65
2022-12-10T04:15:53.550Z,5.10
2022-12-10T04:18:21.007Z,6.03
2022-12-10T04:21:11.964Z,6.63
2022-12-10T04:23:58.209Z,6.28
2022-12-10T04:26:44.492Z,5.72
2022-12-10T04:29:12.282Z,6.18
2022-12-10T04:31:39.992Z,5.78
2022-12-10T04:34:07.391Z,5.73
2022-12-10T04:36:34.810Z,6.20
2022-12-10T04:39:02.569Z,4.90
2022-12-10T04:41:30.025Z,4.87
2022-12-10T04:43:57.490Z,4.55
2022-12-10T04:46:25.400Z,3.53
2022-12-10T04:48:52.860Z,4.18
2022-12-10T04:51:20.347Z,4.50
2022-12-10T04:53:48.075Z,3.95
2022-12-10T04:56:15.515Z,4.35
2022-12-10T04:58:43.204Z,4.87
2022-12-10T05:01:13.816Z,4.70
2022-12-10T05:03:41.802Z,4.20
2022-12-10T05:06:12.397Z,4.22
2022-12-10T05:08:41.444Z,4.03
2022-12-10T05:11:13.652Z,3.93
2022-12-10T05:13:41.656Z,3.65
2022-12-10T05:16:12.336Z,3.75
2022-12-10T05:18:40.188Z,3.53
2022-12-10T05:21:11.720Z,3.78
2022-12-10T05:23:42.162Z,3.30
2022-12-10T05:26:11.282Z,3.35
2022-12-10T05:28:41.263Z,2.75
2022-12-10T05:31:18.152Z,3.28
2022-12-10T05:33:46.694Z,3.10
2022-12-10T05:36:17.233Z,3.47
2022-12-10T05:38:45.951Z,3.55
2022-12-10T05:41:17.032Z,3.47
2022-12-10T05:43:45.194Z,3.53
2022-12-10T05:46:15.271Z,3.22
2022-12-10T05:48:43.041Z,3.30
2022-12-10T05:51:19.601Z,3.20
2022-12-10T05:53:47.643Z,3.67
2022-12-10T05:56:19.317Z,3.40
2022-12-10T05:58:49.362Z,3.08
2022-12-10T06:01:19.995Z,3.37
2022-12-10T06:03:48.399Z,3.25
2022-12-10T06:06:22.328Z,3.67
2022-12-10T06:08:50.682Z,3.25
2022-12-10T06:11:18.767Z,3.50
2022-12-10T06:13:46.240Z,3.10
2022-12-10T06:16:15.375Z,3.80
2022-12-10T06:18:43.579Z,3.35
2022-12-10T06:21:14.432Z,4.05
2022-12-10T06:23:43.247Z,4.07
2022-12-10T06:26:14.403Z,3.33
2022-12-10T06:28:44.817Z,3.33
2022-12-10T06:31:12.653Z,3.50
2022-12-10T06:33:42.093Z,3.05
2022-12-10T06:36:11.786Z,3.62
2022-12-10T06:38:39.890Z,3.37
2022-12-10T06:41:10.284Z,3.12
2022-12-10T06:43:38.472Z,2.80
2022-12-10T06:46:23.863Z,3.05
2022-12-10T06:48:51.779Z,2.95
2022-12-10T06:51:19.421Z,3.00
2022-12-10T06:53:47.636Z,3.58
2022-12-10T06:56:18.753Z,3.53
2022-12-10T06:58:47.559Z,3.20
2022-12-10T07:01:21.417Z,3.25
2022-12-10T07:03:54.142Z,3.03
2022-12-10T07:06:22.931Z,3.33
2022-12-10T07:08:51.274Z,3.22
2022-12-10T07:11:22.682Z,3.60
2022-12-10T07:13:51.141Z,3.65
2022-12-10T07:16:27.271Z,2.97
2022-12-10T07:18:56.826Z,3.80
2022-12-10T07:21:27.050Z,3.28
2022-12-10T07:23:58.983Z,3.70
2022-12-10T07:26:29.516Z,3.58
2022-12-10T07:28:58.838Z,3.07
2022-12-10T07:31:26.977Z,3.37
2022-12-10T07:33:55.378Z,2.80
2022-12-10T07:36:23.797Z,3.33
2022-12-10T07:38:52.491Z,3.70
2022-12-10T07:41:20.652Z,3.13
2022-12-10T07:43:48.584Z,3.35
2022-12-10T07:46:19.161Z,3.25
2022-12-10T07:48:48.284Z,3.30
2022-12-10T07:51:17.440Z,3.50
2022-12-10T07:53:44.996Z,3.80
2022-12-10T07:56:13.017Z,3.90
2022-12-10T07:58:45.800Z,9.65
2022-12-10T08:01:16.438Z,8.88
2022-12-10T08:03:44.859Z,7.70
2022-12-10T08:06:17.849Z,9.17
2022-12-10T08:08:46.133Z,4.93
2022-12-10T08:11:15.440Z,3.17
2022-12-10T08:13:43.256Z,3.85
2022-12-10T08:16:15.802Z,3.65
2022-12-10T08:18:44.951Z,3.10
2022-12-10T08:21:16.085Z,3.35
2022-12-10T08:23:45.324Z,3.60
2022-12-10T08:26:17.045Z,3.42
2022-12-10T08:28:45.035Z,3.47
2022-12-10T08:31:14.816Z,3.30
2022-12-10T08:33:42.571Z,3.05
2022-12-10T08:36:13.516Z,3.70
2022-12-10T08:38:42.061Z,3.90
2022-12-10T08:41:12.326Z,3.65
2022-12-10T08:43:40.496Z,3.63
2022-12-10T08:46:08.849Z,3.03
2022-12-10T08:48:37.055Z,2.72
2022-12-10T08:51:05.890Z,3.15
2022-12-10T08:53:34.585Z,3.50
2022-12-10T08:56:02.066Z,2.93
2022-12-10T08:58:29.582Z,2.80
2022-12-10T09:00:57.423Z,2.83
2022-12-10T09:03:25.115Z,2.70
2022-12-10T09:05:52.646Z,3.42
2022-12-10T09:08:20.820Z,4.43
2022-12-10T09:10:48.385Z,4.55
2022-12-10T09:13:15.830Z,4.82
2022-12-10T09:15:50.662Z,4.45
2022-12-10T09:18:18.255Z,4.30
2022-12-10T09:20:46.056Z,4.47
2022-12-10T09:23:13.551Z,3.78
2022-12-10T09:25:41.011Z,4.57
2022-12-10T09:28:09.003Z,3.45
2022-12-10T09:30:36.527Z,3.62
2022-12-10T09:33:04.261Z,3.47
2022-12-10T09:35:32.218Z,3.00
2022-12-10T09:37:59.810Z,3.35
2022-12-10T09:41:11.901Z,3.40
2022-12-10T09:43:49.851Z,3.60
2022-12-10T09:46:37.561Z,3.30
2022-12-10T09:49:24.784Z,3.37
2022-12-10T09:51:56.403Z,3.97
2022-12-10T09:54:27.906Z,3.70
2022-12-10T09:56:58.199Z,4.15
2022-12-10T09:59:34.974Z,4.70
2022-12-10T10:02:20.925Z,4.70
2022-12-10T10:04:51.443Z,4.15
2022-12-10T10:07:25.765Z,4.68
2022-12-10T10:09:59.623Z,4.25
2022-12-10T10:12:29.615Z,4.50
2022-12-10T10:14:57.601Z,4.47
2022-12-10T10:17:34.547Z,4.18
2022-12-10T10:20:02.650Z,4.45
2022-12-10T10:22:31.166Z,4.37
2022-12-10T10:24:59.543Z,4.70
2022-12-10T10:27:31.439Z,3.83
2022-12-10T10:30:02.276Z,4.43
2022-12-10T10:32:51.733Z,4.40
2022-12-10T10:35:22.120Z,5.72
2022-12-10T10:37:50.184Z,5.23
2022-12-10T10:40:27.160Z,5.78
2022-12-10T10:42:58.094Z,5.43
2022-12-10T10:45:33.740Z,5.18
2022-12-10T10:48:28.234Z,5.18
2022-12-10T10:51:06.519Z,4.97
2022-12-10T10:53:44.825Z,4.87
2022-12-10T10:56:44.584Z,5.10
2022-12-10T10:59:16.879Z,4.53
2022-12-10T11:01:47.795Z,4.28
2022-12-10T11:04:18.246Z,5.33
2022-12-10T11:06:46.421Z,4.10
2022-12-10T11:09:23.019Z,4.50
2022-12-10T11:11:58.280Z,3.87
2022-12-10T11:14:33.956Z,3.53
2022-12-10T11:17:12.121Z,3.43
2022-12-10T11:19:54.183Z,3.12
2022-12-10T11:22:29.314Z,3.60
2022-12-10T11:24:58.135Z,3.30
2022-12-10T11:27:34.930Z,2.80
2022-12-10T11:30:14.521Z,2.80
2022-12-10T11:33:19.526Z,2.67
2022-12-10T11:35:56.691Z,2.50
2022-12-10T11:38:43.799Z,2.70
2022-12-10T11:41:23.786Z,2.28
2022-12-10T11:44:17.415Z,2.23
2022-12-10T11:47:19.059Z,2.12
2022-12-10T11:49:55.577Z,2.03
2022-12-10T11:52:46.481Z,2.53
2022-12-10T11:55:39.788Z,2.30
2022-12-10T11:58:36.119Z,1.93
2022-12-10T12:01:28.227Z,1.77
2022-12-10T12:04:05.108Z,1.50
2022-12-10T12:06:39.890Z,1.87
2022-12-10T12:09:21.669Z,1.55
2022-12-10T12:12:05.033Z,1.30
2022-12-10T12:14:55.562Z,1.80
2022-12-10T12:17:38.116Z,2.70
2022-12-10T12:20:18.880Z,3.85
2022-12-10T12:22:52.980Z,3.90
2022-12-10T12:25:36.167Z,3.10
2022-12-10T12:28:16.911Z,1.05
2022-12-10T12:30:48.298Z,1.00
2022-12-10T12:33:55.282Z,0.80
2022-12-10T12:36:29.343Z,0.95
2022-12-10T12:39:13.398Z,0.80
2022-12-10T12:42:03.182Z,0.85
2022-12-10T12:45:02.490Z,0.75
2022-12-10T12:47:30.287Z,1.02
2022-12-10T12:49:59.923Z,0.80
2022-12-10T12:52:40.875Z,1.00
2022-12-10T12:55:38.400Z,1.30
2022-12-10T12:58:12.079Z,0.90
2022-12-10T13:00:43.800Z,0.90
2022-12-10T13:03:32.917Z,0.82
2022-12-10T13:06:35.107Z,0.70
2022-12-10T13:09:14.410Z,0.80
2022-12-10T13:11:44.423Z,0.98
2022-12-10T13:14:31.867Z,0.98
2022-12-10T13:17:03.403Z,0.82
2022-12-10T13:19:31.981Z,1.00
2022-12-10T13:22:13.247Z,1.23
2022-12-10T13:24:46.641Z,0.82
2022-12-10T13:27:20.626Z,0.73
2022-12-10T13:29:48.043Z,1.30
2022-12-10T13:32:35.946Z,1.40
2022-12-10T13:35:31.140Z,1.20
2022-12-10T13:38:20.753Z,0.90
2022-12-10T13:41:18.883Z,1.02
2022-12-10T13:44:13.597Z,1.37
2022-12-10T13:47:05.421Z,1.27
2022-12-10T13:50:04.317Z,1.37
2022-12-10T13:52:50.372Z,1.67
2022-12-10T13:55:21.891Z,1.60
2022-12-10T13:57:54.639Z,1.77
2022-12-10T14:00:30.373Z,1.70
2022-12-10T14:03:20.314Z,1.90
2022-12-10T14:06:06.015Z,2.47
2022-12-10T14:08:38.908Z,1.87
2022-12-10T14:11:11.187Z,2.03
2022-12-10T14:13:50.992Z,1.77
2022-12-10T14:16:21.604Z,1.80
2022-12-10T14:18:56.636Z,1.30
2022-12-10T14:21:25.691Z,1.10
2022-12-10T14:23:56.370Z,1.60
2022-12-10T14:26:36.996Z,1.40
2022-12-10T14:29:07.511Z,1.65
2022-12-10T14:31:39.957Z,1.58
2022-12-10T14:34:09.915Z,1.50
2022-12-10T14:36:46.979Z,1.77
2022-12-10T14:39:20.668Z,1.40
2022-12-10T14:41:51.772Z,1.80
2022-12-10T14:44:20.402Z,2.08
2022-12-10T14:46:49.565Z,2.42
2022-12-10T14:49:21.613Z,1.98
2022-12-10T14:51:49.589Z,2.03
2022-12-10T14:54:29.655Z,2.28
2022-12-10T14:56:59.746Z,2.25
2022-12-10T14:59:43.768Z,2.67
2022-12-10T15:02:29.624Z,2.55
2022-12-10T15:04:58.302Z,2.60
2022-12-10T15:07:37.907Z,2.70
2022-12-10T15:10:14.813Z,2.42
2022-12-10T15:12:47.779Z,2.42
2022-12-10T15:15:41.607Z,2.33
2022-12-10T15:18:09.938Z,2.03
2022-12-10T15:20:38.926Z,2.50
2022-12-10T15:23:29.369Z,2.30
2022-12-10T15:26:15.339Z,2.28
2022-12-10T15:28:43.642Z,2.12
2022-12-10T15:31:17.076Z,1.70
2022-12-10T15:34:03.165Z,2.20
2022-12-10T15:36:41.414Z,1.95
2022-12-10T15:39:11.822Z,2.28
2022-12-10T15:41:53.134Z,2.00
2022-12-10T15:44:41.327Z,2.53
2022-12-10T15:47:20.750Z,2.28
2022-12-10T15:49:50.725Z,2.22
2022-12-10T15:52:25.414Z,2.22
2022-12-10T15:54:54.864Z,2.08
2022-12-10T15:57:30.311Z,2.40
2022-12-10T16:00:05.035Z,2.87
2022-12-10T16:02:44.952Z,2.40
2022-12-10T16:05:12.678Z,2.60
2022-12-10T16:07:40.536Z,3.05
2022-12-10T16:10:10.254Z,2.27
2022-12-10T16:12:40.689Z,2.62
2022-12-10T16:15:16.170Z,2.42
2022-12-10T16:17:43.924Z,2.53
2022-12-10T16:20:26.940Z,2.30
2022-12-10T16:22:56.510Z,2.23
2022-12-10T16:25:26.706Z,2.28
2022-12-10T16:27:54.611Z,1.90
2022-12-10T16:30:33.216Z,2.00
2022-12-10T16:33:04.635Z,2.55
2022-12-10T16:35:32.858Z,1.67
2022-12-10T16:38:03.468Z,1.30
2022-12-10T16:40:34.911Z,1.12
2022-12-10T16:43:02.474Z,1.45
2022-12-10T16:45:38.083Z,1.02
2022-12-10T16:48:06.189Z,0.77
2022-12-10T16:50:34.650Z,0.80
2022-12-10T16:53:24.547Z,0.70
2022-12-10T16:55:52.741Z,0.80
2022-12-10T16:58:20.445Z,0.68
2022-12-10T17:00:50.150Z,0.80
2022-12-10T17:03:24.359Z,0.50
2022-12-10T17:06:07.166Z,0.73
2022-12-10T17:08:34.922Z,0.80
2022-12-10T17:11:20.996Z,1.08
2022-12-10T17:13:49.141Z,0.87
2022-12-10T17:16:22.033Z,1.20
2022-12-10T17:18:50.079Z,1.30
2022-12-10T17:21:17.606Z,1.00
2022-12-10T17:23:45.081Z,1.08
2022-12-10T17:26:25.244Z,1.17
2022-12-10T17:28:53.379Z,1.20
2022-12-10T17:31:22.548Z,1.40
2022-12-10T17:33:52.058Z,1.37
2022-12-10T17:36:19.941Z,1.40
2022-12-10T17:38:47.610Z,1.43
2022-12-10T17:41:16.720Z,1.35
2022-12-10T17:43:44.223Z,1.40
2022-12-10T17:46:13.073Z,1.70
2022-12-10T17:48:41.419Z,1.35
2022-12-10T17:51:12.146Z,1.70
2022-12-10T17:53:40.843Z,1.52
2022-12-10T17:56:30.783Z,0.95
2022-12-10T17:58:59.199Z,1.35
2022-12-10T18:01:27.483Z,1.40
2022-12-10T18:03:55.775Z,1.70
2022-12-10T18:06:27.544Z,1.67
2022-12-10T18:08:57.428Z,1.75
2022-12-10T18:11:33.939Z,2.33
2022-12-10T18:14:02.025Z,1.70
2022-12-10T18:16:33.045Z,1.87
2022-12-10T18:19:03.826Z,2.33
2022-12-10T18:21:31.539Z,1.85
2022-12-10T18:23:58.958Z,2.30
2022-12-10T18:26:27.210Z,2.60
2022-12-10T18:29:00.168Z,1.90
2022-12-10T18:31:33.812Z,1.90
2022-12-10T18:34:07.607Z,1.80
2022-12-10T18:36:38.090Z,2.03
2022-12-10T18:39:29.433Z,1.95
2022-12-10T18:41:56.937Z,1.60
2022-12-10T18:44:26.866Z,1.87
2022-12-10T18:46:56.901Z,1.65
2022-12-10T18:49:25.380Z,1.37
2022-12-10T18:51:52.854Z,1.80
2022-12-10T18:54:21.563Z,1.27
2022-12-10T18:57:03.637Z,1.67
2022-12-10T18:59:37.063Z,1.87
2022-12-10T19:02:05.142Z,1.62
2022-12-10T19:04:32.632Z,1.70
2022-12-10T19:07:00.209Z,1.77
2022-12-10T19:09:32.360Z,1.23
2022-12-10T19:12:00.232Z,1.20
2022-12-10T19:14:27.958Z,2.05
2022-12-10T19:16:55.403Z,1.67
2022-12-10T19:19:22.815Z,1.70
2022-12-10T19:21:50.592Z,1.60
2022-12-10T19:24:18.038Z,1.73
2022-12-10T19:26:45.677Z,1.50
2022-12-10T19:29:19.866Z,2.00
2022-12-10T19:31:47.755Z,2.07
2022-12-10T19:34:17.545Z,2.30
2022-12-10T19:36:46.079Z,1.50
2022-12-10T19:39:20.926Z,1.90
2022-12-10T19:41:49.597Z,1.98
2022-12-10T19:44:17.373Z,2.03
2022-12-10T19:46:45.531Z,2.55
2022-12-10T19:49:14.958Z,2.30
2022-12-10T19:51:43.375Z,1.95
2022-12-10T19:54:11.374Z,2.58
2022-12-10T19:56:39.771Z,2.50
2022-12-10T19:59:15.110Z,2.22
2022-12-10T20:01:44.367Z,2.90
2022-12-10T20:04:14.674Z,2.60
2022-12-10T20:06:44.271Z,2.75
2022-12-10T20:09:19.727Z,2.27
2022-12-10T20:11:47.783Z,2.45
2022-12-10T20:14:16.498Z,2.78
2022-12-10T20:16:44.162Z,2.37
2022-12-10T20:19:14.350Z,2.17
2022-12-10T20:21:42.122Z,2.70
2022-12-10T20:24:09.755Z,2.40
2022-12-10T20:26:40.099Z,2.62
2022-12-10T20:29:17.973Z,2.35
2022-12-10T20:31:47.084Z,2.70
2022-12-10T20:34:15.186Z,2.33
2022-12-10T20:36:42.820Z,2.40
2022-12-10T20:39:25.313Z,1.58
2022-12-10T20:41:53.924Z,1.95
2022-12-10T20:44:22.486Z,2.42
2022-12-10T20:46:51.697Z,2.60
2022-12-10T20:49:21.167Z,2.28
2022-12-10T20:51:49.432Z,2.20
2022-12-10T20:54:17.008Z,2.50
2022-12-10T20:56:44.996Z,2.55
2022-12-10T20:59:17.419Z,2.10
2022-12-10T21:01:45.352Z,2.17
2022-12-10T21:04:13.376Z,2.58
2022-12-10T21:06:43.252Z,2.50
2022-12-10T21:09:12.547Z,2.72
2022-12-10T21:11:40.206Z,2.60
2022-12-10T21:14:18.506Z,2.40
2022-12-10T21:16:55.524Z,2.50
2022-12-10T21:19:22.987Z,2.55
2022-12-10T21:21:50.553Z,2.50
2022-12-10T21:24:18.687Z,2.00
2022-12-10T21:26:46.129Z,2.15
2022-12-10T21:29:14.611Z,2.83
2022-12-10T21:31:43.046Z,2.20
2022-12-10T21:34:10.548Z,2.20
2022-12-10T21:36:38.100Z,2.17
2022-12-10T21:39:05.904Z,1.95
2022-12-10T21:41:52.495Z,1.70
2022-12-10T21:44:20.287Z,1.90
2022-12-10T21:46:47.818Z,2.47
2022-12-10T21:49:15.562Z,2.27
2022-12-10T21:51:43.459Z,1.70
2022-12-10T21:54:10.951Z,1.98
2022-12-10T21:56:38.371Z,2.30
2022-12-10T21:59:06.207Z,2.22
2022-12-10T22:01:33.802Z,2.73
2022-12-10T22:04:01.536Z,2.30
2022-12-10T22:06:29.791Z,1.55
2022-12-10T22:08:58.514Z,2.10
2022-12-10T22:11:26.584Z,1.92
2022-12-10T22:13:55.242Z,1.70
2022-12-10T22:16:23.181Z,1.33
2022-12-10T22:18:51.061Z,1.70
2022-12-10T22:21:23.516Z,1.77
2022-12-10T22:23:55.487Z,1.62
2022-12-10T22:26:23.593Z,1.40
2022-12-10T22:28:51.847Z,1.92
2022-12-10T22:31:20.000Z,1.45
2022-12-10T22:33:47.663Z,1.75
2022-12-10T22:36:15.601Z,1.15
2022-12-10T22:38:43.784Z,1.57
2022-12-10T22:41:12.004Z,1.62
2022-12-10T22:43:55.056Z,0.93
2022-12-10T22:46:22.675Z,1.40
2022-12-10T22:48:50.570Z,1.20
2022-12-10T22:51:18.003Z,1.00
2022-12-10T22:53:45.516Z,0.77
2022-12-10T22:56:21.513Z,1.17
2022-12-10T22:58:53.379Z,1.30
2022-12-10T23:01:22.405Z,1.40
2022-12-10T23:03:51.565Z,0.90
2022-12-10T23:06:19.793Z,1.15
2022-12-10T23:08:47.772Z,0.95
2022-12-10T23:11:16.323Z,1.50
2022-12-10T23:13:44.270Z,1.27
2022-12-10T23:16:15.228Z,1.23
2022-12-10T23:18:43.972Z,1.50
2022-12-10T23:21:18.301Z,1.00
2022-12-10T23:23:45.806Z,1.00
2022-12-10T23:26:13.905Z,1.17
2022-12-10T23:28:41.367Z,0.93
2022-12-10T23:31:10.988Z,0.98
2022-12-10T23:33:38.884Z,1.17
2022-12-10T23:36:09.087Z,0.80
2022-12-10T23:38:37.742Z,1.15
2022-12-10T23:41:09.987Z,1.20
2022-12-10T23:43:38.456Z,0.90
2022-12-10T23:46:07.070Z,0.75
2022-12-10T23:48:34.837Z,0.95
2022-12-10T23:51:02.438Z,0.93
2022-12-10T23:53:30.305Z,1.10
2022-12-10T23:55:57.841Z,1.00
2022-12-10T23:58:25.678Z,1.08
